Overview Statistics Trail Chart Weather Telemetry Raw packets
 

This is the latest recevied weather packets stored in our database for station/object 9W2CHF-3. If no packets are shown the sender has not sent any weather packets the latest 10 day(s).

<< 4 5 6 7 8 9 10 >>
Time Temp. Humidity Pressure Rain* Wind** Luminosity Snow
1777601211 32.78° C 95% 1011.9 hPa - - - -
1777600011 30° C 100% 1011.8 hPa - - - -
1777598811 30° C 100% 1011.8 hPa - - - -
1777597611 29.44° C 100% 1011.5 hPa - - - -
1777596411 28.89° C 100% 1011.3 hPa - - - -
1777595210 29.44° C 100% 1011 hPa - - - -
1777594010 28.89° C 100% 1010.6 hPa - - - -
1777592810 28.89° C 100% 1010.6 hPa - - - -
1777591610 28.33° C 100% 1010.7 hPa - - - -
1777590410 30.56° C 91% 1010.5 hPa - - - -
1777589210 30° C 97% 1010.2 hPa - - - -
1777588010 30° C 100% 1010.1 hPa - - - -
1777586809 30° C 100% 1009.9 hPa - - - -
1777585609 30° C 100% 1010 hPa - - - -
1777584409 30° C 100% 1010 hPa - - - -
1777583209 30° C 100% 1009.7 hPa - - - -
1777582009 29.44° C 100% 1009.6 hPa - - - -
1777580809 29.44° C 100% 1009.6 hPa - - - -
1777579609 30.56° C 96% 1009.6 hPa - - - -
1777578409 30° C 97% 1009.8 hPa - - - -
1777577209 30° C 99% 1009.9 hPa - - - -
1777576008 30.56° C 95% 1010.1 hPa - - - -
1777574807 30° C 98% 1010.4 hPa - - - -
1777573613 30.56° C 96% 1010.6 hPa - - - -
1777572413 30.56° C 93% 1010.9 hPa - - - -

* Rain since midnight (hover to see other rain measurements)
** Current wind speed in m/s (hover to see current wind gust speed)